Time;durP1;ratioP1;P1;durP2;ratioP2;P2;SDS_P1;SDS_P2;PMS_P1;PMS_P2;Temp;Humidity;BMP_temperature;BMP_pressure;BME280_temperature;BME280_humidity;BME280_pressure;Samples;Min_cycle;Max_cycle;Signal;HPM_P1;HPM_P2
2022/03/24 00:00:52;;;;;;;62.87;42.10;;;8.80;99.90;;;;;;5004119;28;20202;-75
2022/03/24 00:03:19;;;;;;;60.00;41.60;;;8.70;99.90;;;;;;5019446;28;20237;-77
2022/03/24 00:05:47;;;;;;;60.93;41.77;;;8.70;99.90;;;;;;5022908;28;20206;-76
2022/03/24 00:08:14;;;;;;;59.10;40.57;;;8.70;99.90;;;;;;5022145;28;20209;-76
2022/03/24 00:10:40;;;;;;;55.67;39.93;;;8.70;99.90;;;;;;5023324;28;20202;-75
2022/03/24 00:13:07;;;;;;;57.30;41.00;;;8.70;99.90;;;;;;5023291;28;20202;-76
2022/03/24 00:15:34;;;;;;;50.33;38.37;;;8.70;99.90;;;;;;5009457;28;20247;-76
2022/03/24 00:18:01;;;;;;;49.70;36.40;;;8.60;99.90;;;;;;5001961;28;20646;-76
2022/03/24 00:20:28;;;;;;;54.73;39.13;;;8.60;99.90;;;;;;5001639;28;20206;-76
2022/03/24 00:22:56;;;;;;;53.93;37.70;;;8.50;99.90;;;;;;5003493;28;20210;-75
2022/03/24 00:25:24;;;;;;;54.20;38.63;;;8.40;99.90;;;;;;5003481;28;20207;-75
2022/03/24 00:27:51;;;;;;;56.80;39.50;;;8.40;99.90;;;;;;5002603;28;20203;-75
2022/03/24 00:30:17;;;;;;;52.00;38.20;;;8.30;99.90;;;;;;5001964;28;20210;-76
2022/03/24 00:32:44;;;;;;;60.70;39.83;;;8.30;99.90;;;;;;5003684;28;20210;-74
2022/03/24 00:35:11;;;;;;;57.00;38.50;;;8.20;99.90;;;;;;5003335;28;20206;-76
2022/03/24 00:37:37;;;;;;;49.97;36.73;;;8.20;99.90;;;;;;5001833;28;20634;-76
2022/03/24 00:40:07;;;;;;;55.63;37.90;;;8.10;99.90;;;;;;5003442;28;20207;-75
2022/03/24 00:42:36;;;;;;;48.90;35.73;;;8.10;99.90;;;;;;5002034;28;20670;-75
2022/03/24 00:45:05;;;;;;;48.63;35.20;;;8.00;99.90;;;;;;5003646;28;20211;-74
2022/03/24 00:47:34;;;;;;;52.20;37.23;;;8.00;99.90;;;;;;5003314;28;20195;-75
2022/03/24 00:50:01;;;;;;;53.03;36.87;;;8.00;99.90;;;;;;4998432;28;20211;-76
2022/03/24 00:52:29;;;;;;;54.10;37.20;;;7.90;99.90;;;;;;5008884;28;20205;-75
2022/03/24 00:54:56;;;;;;;50.07;36.27;;;7.90;99.90;;;;;;5018789;28;20202;-75
2022/03/24 00:57:24;;;;;;;45.23;34.40;;;7.80;99.90;;;;;;5022272;28;20218;-75
2022/03/24 00:59:50;;;;;;;48.10;35.03;;;7.80;99.90;;;;;;5023336;28;20217;-75
2022/03/24 01:02:17;;;;;;;47.13;34.30;;;7.80;99.90;;;;;;5024386;28;20226;-75
2022/03/24 01:04:44;;;;;;;45.97;34.53;;;7.70;99.90;;;;;;5026415;28;20211;-75
2022/03/24 01:07:12;;;;;;;48.93;35.17;;;7.70;99.90;;;;;;5026266;28;20223;-75
2022/03/24 01:09:38;;;;;;;50.33;36.40;;;7.70;99.90;;;;;;5025319;28;20195;-75
2022/03/24 01:12:06;;;;;;;56.63;38.20;;;7.70;99.90;;;;;;5026542;28;20214;-75
2022/03/24 01:14:35;;;;;;;54.33;36.47;;;7.60;99.90;;;;;;5025398;28;20658;-75
2022/03/24 01:17:04;;;;;;;51.90;35.43;;;7.60;99.90;;;;;;5024842;28;20207;-76
2022/03/24 01:19:32;;;;;;;56.93;38.83;;;7.50;99.90;;;;;;5025765;28;20280;-76
2022/03/24 01:21:59;;;;;;;50.87;36.53;;;7.50;99.90;;;;;;5024797;28;20700;-75
2022/03/24 01:24:26;;;;;;;52.67;37.20;;;7.50;99.90;;;;;;5025177;28;20599;-76
2022/03/24 01:26:53;;;;;;;45.87;34.70;;;7.50;99.90;;;;;;5026118;28;20205;-74
2022/03/24 01:29:21;;;;;;;49.37;34.53;;;7.40;99.90;;;;;;5025367;28;20214;-75
2022/03/24 01:31:50;;;;;;;47.83;35.20;;;7.40;99.90;;;;;;5024538;28;20570;-75
2022/03/24 01:34:17;;;;;;;52.40;36.57;;;7.40;99.90;;;;;;5025917;28;20288;-75
2022/03/24 01:36:44;;;;;;;54.77;38.13;;;7.40;99.90;;;;;;5025158;28;20295;-76
2022/03/24 01:39:11;;;;;;;55.23;35.33;;;7.30;99.90;;;;;;5024580;28;20230;-74
2022/03/24 01:41:40;;;;;;;58.50;38.23;;;7.30;99.90;;;;;;5026096;28;20215;-75
2022/03/24 01:44:12;;;;;;;49.00;36.43;;;7.30;99.90;;;;;;5025348;28;20206;-74
2022/03/24 01:46:39;;;;;;;51.13;36.60;;;7.20;99.90;;;;;;5024917;28;20207;-75
2022/03/24 01:49:08;;;;;;;53.23;37.63;;;7.20;99.90;;;;;;5005323;28;20212;-75
2022/03/24 01:51:35;;;;;;;48.10;34.60;;;7.20;99.90;;;;;;5014833;28;20614;-74
2022/03/24 01:54:02;;;;;;;46.60;35.13;;;7.20;99.90;;;;;;5025071;28;20635;-75
2022/03/24 01:56:29;;;;;;;49.97;35.67;;;7.10;99.90;;;;;;5025780;28;20214;-76
2022/03/24 01:58:57;;;;;;;50.60;35.30;;;7.10;99.90;;;;;;5024746;28;21006;-76
2022/03/24 02:01:34;;;;;;;49.27;34.57;;;7.10;99.90;;;;;;5023947;28;20538;-75
2022/03/24 02:04:03;;;;;;;45.93;33.57;;;7.10;99.90;;;;;;5025481;28;20195;-76
2022/03/24 02:06:32;;;;;;;47.43;34.27;;;7.00;99.90;;;;;;5024879;28;20203;-76
2022/03/24 02:08:59;;;;;;;48.60;34.90;;;7.00;99.90;;;;;;5024847;28;20325;-75
2022/03/24 02:11:26;;;;;;;51.20;33.70;;;7.00;99.90;;;;;;5024950;28;20207;-76
2022/03/24 02:13:54;;;;;;;49.47;33.30;;;7.00;99.90;;;;;;5023709;28;20217;-76
2022/03/24 02:16:21;;;;;;;48.10;34.80;;;6.90;99.90;;;;;;5024972;28;20248;-74
2022/03/24 02:18:48;;;;;;;51.73;34.33;;;6.90;99.90;;;;;;5024959;28;20233;-75
2022/03/24 02:21:16;;;;;;;45.03;33.63;;;6.90;99.90;;;;;;5024239;28;20422;-75
2022/03/24 02:23:44;;;;;;;45.50;31.60;;;6.90;99.90;;;;;;5025164;28;20220;-76
2022/03/24 02:26:12;;;;;;;42.83;31.00;;;6.90;99.90;;;;;;5023169;28;20325;-76
2022/03/24 02:28:40;;;;;;;46.60;32.13;;;6.80;99.90;;;;;;5024789;28;20202;-74
2022/03/24 02:31:09;;;;;;;48.20;32.73;;;6.80;99.90;;;;;;5023774;28;20206;-74
2022/03/24 02:33:36;;;;;;;48.27;33.50;;;6.80;99.90;;;;;;5024104;28;20211;-75
2022/03/24 02:36:03;;;;;;;50.90;34.37;;;6.70;99.90;;;;;;5024026;28;20507;-74
2022/03/24 02:38:29;;;;;;;43.10;32.60;;;6.70;99.90;;;;;;5023890;28;20218;-74
2022/03/24 02:40:57;;;;;;;44.37;31.93;;;6.70;99.90;;;;;;5024245;28;20214;-75
2022/03/24 02:43:25;;;;;;;43.90;30.73;;;6.60;99.90;;;;;;5023966;28;20206;-74
2022/03/24 02:45:53;;;;;;;43.53;32.20;;;6.60;99.90;;;;;;5021712;28;20316;-75
2022/03/24 02:48:20;;;;;;;44.50;31.90;;;6.60;99.90;;;;;;5015311;28;20203;-75
2022/03/24 02:50:47;;;;;;;45.27;31.87;;;6.50;99.90;;;;;;5021088;28;20211;-75
2022/03/24 02:53:14;;;;;;;45.43;31.57;;;6.50;99.90;;;;;;5019541;28;20217;-76
2022/03/24 02:55:41;;;;;;;45.97;31.97;;;6.50;99.90;;;;;;5022666;28;20624;-75
2022/03/24 02:58:09;;;;;;;43.80;30.80;;;6.40;99.90;;;;;;5023403;28;20206;-75
2022/03/24 03:00:38;;;;;;;41.57;29.80;;;6.40;99.90;;;;;;5023980;28;20214;-75
2022/03/24 03:03:06;;;;;;;43.27;31.20;;;6.40;99.90;;;;;;5023382;28;20234;-76
2022/03/24 03:05:32;;;;;;;47.50;32.93;;;6.40;99.90;;;;;;5023615;28;20568;-75
2022/03/24 03:07:59;;;;;;;46.07;32.93;;;6.40;99.90;;;;;;5024306;28;20701;-75
2022/03/24 03:10:26;;;;;;;45.40;32.10;;;6.30;99.90;;;;;;5023775;28;20217;-75
2022/03/24 03:12:53;;;;;;;44.87;31.27;;;6.30;99.90;;;;;;5024717;28;20213;-75
2022/03/24 03:15:21;;;;;;;47.00;33.63;;;6.30;99.90;;;;;;5022167;28;20242;-75
2022/03/24 03:17:47;;;;;;;46.70;33.33;;;6.20;99.90;;;;;;5023573;28;20213;-75
2022/03/24 03:20:15;;;;;;;44.73;32.90;;;6.20;99.90;;;;;;5022642;28;20237;-75
2022/03/24 03:22:42;;;;;;;46.77;33.13;;;6.20;99.90;;;;;;5023397;28;20297;-75
2022/03/24 03:25:09;;;;;;;47.07;32.10;;;6.20;99.90;;;;;;5023032;28;20198;-75
2022/03/24 03:27:36;;;;;;;45.73;31.70;;;6.10;99.90;;;;;;5023778;28;20317;-74
2022/03/24 03:30:05;;;;;;;47.20;33.93;;;6.10;99.90;;;;;;5005838;28;20211;-73
2022/03/24 03:32:33;;;;;;;46.23;32.83;;;6.10;99.90;;;;;;5004316;28;20214;-74
2022/03/24 03:34:59;;;;;;;48.43;33.17;;;6.10;99.90;;;;;;5004038;28;20207;-75
2022/03/24 03:37:26;;;;;;;47.70;33.60;;;6.10;99.90;;;;;;5005922;28;20325;-74
2022/03/24 03:39:53;;;;;;;44.73;31.70;;;6.00;99.90;;;;;;5023661;28;20233;-74
2022/03/24 03:42:21;;;;;;;48.20;33.20;;;6.00;99.90;;;;;;5023725;28;20563;-75
2022/03/24 03:44:48;;;;;;;53.30;36.33;;;6.00;99.90;;;;;;5022874;28;20236;-74
2022/03/24 03:47:14;;;;;;;49.60;35.37;;;5.90;99.90;;;;;;5019223;28;20908;-75
2022/03/24 03:49:42;;;;;;;47.33;33.40;;;5.90;99.90;;;;;;5003676;28;20199;-76
2022/03/24 03:52:10;;;;;;;47.93;34.50;;;5.90;99.90;;;;;;5008678;28;20210;-76
2022/03/24 03:54:38;;;;;;;46.77;33.47;;;5.90;99.90;;;;;;5021612;28;20206;-76
2022/03/24 03:57:05;;;;;;;49.60;34.40;;;5.90;99.90;;;;;;5012882;28;20207;-75
2022/03/24 03:59:32;;;;;;;51.53;34.47;;;5.90;99.90;;;;;;5017178;28;20218;-75
2022/03/24 04:01:59;;;;;;;46.10;33.17;;;5.80;99.90;;;;;;5009385;28;20542;-75
2022/03/24 04:04:26;;;;;;;47.83;35.07;;;5.80;99.90;;;;;;5014247;28;20610;-75
2022/03/24 04:06:54;;;;;;;48.40;33.27;;;5.80;99.90;;;;;;5017258;28;20850;-75
2022/03/24 04:09:21;;;;;;;49.03;32.53;;;5.80;99.90;;;;;;5017541;28;20954;-75
2022/03/24 04:11:47;;;;;;;46.73;33.07;;;5.80;99.90;;;;;;5009300;28;20202;-74
2022/03/24 04:14:14;;;;;;;47.87;34.03;;;5.80;99.90;;;;;;5015630;28;20210;-75
2022/03/24 04:16:41;;;;;;;52.67;34.67;;;5.70;99.90;;;;;;5008014;28;20278;-72
2022/03/24 04:19:09;;;;;;;44.83;32.43;;;5.70;99.90;;;;;;5013312;28;20259;-75
2022/03/24 04:21:35;;;;;;;48.03;31.97;;;5.70;99.90;;;;;;5014947;28;20277;-75
2022/03/24 04:24:04;;;;;;;47.13;33.30;;;5.70;99.90;;;;;;5016097;28;20214;-75
2022/03/24 04:26:31;;;;;;;52.53;36.33;;;5.70;99.90;;;;;;5007952;28;20203;-75
2022/03/24 04:28:58;;;;;;;46.07;32.17;;;5.60;99.90;;;;;;5014341;28;20203;-75
2022/03/24 04:31:25;;;;;;;47.23;32.63;;;5.60;99.90;;;;;;5016349;28;20284;-74
2022/03/24 04:33:52;;;;;;;44.90;31.97;;;5.60;99.90;;;;;;5022220;28;20215;-75
2022/03/24 04:36:19;;;;;;;55.37;38.33;;;5.60;99.90;;;;;;5025174;28;20206;-74
2022/03/24 04:38:46;;;;;;;60.53;40.37;;;5.50;99.90;;;;;;5026576;28;20600;-76
2022/03/24 04:41:14;;;;;;;56.40;37.93;;;5.50;99.90;;;;;;5026748;28;20206;-75
2022/03/24 04:43:41;;;;;;;59.50;39.77;;;5.50;99.90;;;;;;5025424;28;20229;-74
2022/03/24 04:46:08;;;;;;;59.10;39.87;;;5.40;99.90;;;;;;5025074;28;20217;-75
2022/03/24 04:48:36;;;;;;;57.07;39.40;;;5.50;99.90;;;;;;5026234;28;20219;-75
2022/03/24 04:51:05;;;;;;;64.47;40.57;;;5.50;99.90;;;;;;5026343;28;20321;-75
2022/03/24 04:53:32;;;;;;;58.90;39.93;;;5.50;99.90;;;;;;5026889;28;20207;-75
2022/03/24 04:55:59;;;;;;;62.43;39.80;;;5.40;99.90;;;;;;5025357;28;20517;-76
2022/03/24 04:58:27;;;;;;;55.30;38.70;;;5.40;99.90;;;;;;5025705;28;20203;-74
2022/03/24 05:00:54;;;;;;;58.50;38.00;;;5.40;99.90;;;;;;5026031;28;20227;-74
2022/03/24 05:03:21;;;;;;;55.10;36.80;;;5.40;99.90;;;;;;5025595;28;20237;-76
2022/03/24 05:05:48;;;;;;;53.63;36.23;;;5.40;99.90;;;;;;5026258;28;20291;-75
2022/03/24 05:08:15;;;;;;;54.80;37.27;;;5.40;99.90;;;;;;5026253;28;20206;-75
2022/03/24 05:10:42;;;;;;;53.10;36.73;;;5.40;99.90;;;;;;5026260;28;20202;-75
2022/03/24 05:13:08;;;;;;;55.73;37.70;;;5.40;99.90;;;;;;5026246;28;20202;-74
2022/03/24 05:15:36;;;;;;;50.83;35.30;;;5.30;99.90;;;;;;5025262;28;20238;-74
2022/03/24 05:18:04;;;;;;;53.23;35.57;;;5.30;99.90;;;;;;5025266;28;20206;-75
2022/03/24 05:20:31;;;;;;;59.27;39.20;;;5.30;99.90;;;;;;5026259;28;20317;-74
2022/03/24 05:22:57;;;;;;;52.43;35.27;;;5.30;99.90;;;;;;5023896;28;20985;-73
2022/03/24 05:25:25;;;;;;;54.40;38.37;;;5.30;99.90;;;;;;5026138;28;20210;-75
2022/03/24 05:27:51;;;;;;;56.50;37.10;;;5.30;99.90;;;;;;5025762;28;20313;-75
2022/03/24 05:30:18;;;;;;;48.90;34.63;;;5.30;99.90;;;;;;5024807;28;20206;-75
2022/03/24 05:32:46;;;;;;;50.60;36.13;;;5.30;99.90;;;;;;5026474;28;20215;-75
2022/03/24 05:35:13;;;;;;;52.00;36.57;;;5.30;99.90;;;;;;5025541;28;20476;-74
2022/03/24 05:37:41;;;;;;;50.50;35.53;;;5.30;99.90;;;;;;5025094;28;20214;-75
2022/03/24 05:40:09;;;;;;;47.87;33.00;;;5.20;99.90;;;;;;5025717;28;20712;-75
2022/03/24 05:42:36;;;;;;;45.47;32.40;;;5.20;99.90;;;;;;5025649;28;20207;-75
2022/03/24 05:45:04;;;;;;;50.60;35.00;;;5.20;99.90;;;;;;5025356;28;20659;-75
2022/03/24 05:47:31;;;;;;;54.57;36.60;;;5.20;99.90;;;;;;5024561;28;20257;-75
2022/03/24 05:49:59;;;;;;;56.57;37.97;;;5.20;99.90;;;;;;5025414;28;20253;-75
2022/03/24 05:52:26;;;;;;;54.13;38.80;;;5.20;99.90;;;;;;5025704;28;20514;-75
2022/03/24 05:54:53;;;;;;;49.57;35.00;;;5.20;99.90;;;;;;5024464;28;20214;-76
2022/03/24 05:57:19;;;;;;;51.70;37.43;;;5.10;99.90;;;;;;5024971;28;20202;-75
2022/03/24 05:59:46;;;;;;;55.57;37.27;;;5.20;99.90;;;;;;5025405;28;20218;-75
2022/03/24 06:02:14;;;;;;;55.63;37.20;;;5.20;99.90;;;;;;5024363;28;20223;-75
2022/03/24 06:04:42;;;;;;;50.27;35.80;;;5.20;99.90;;;;;;5024898;28;20237;-75
2022/03/24 06:07:11;;;;;;;59.30;39.27;;;5.20;99.90;;;;;;5025616;28;20198;-75
2022/03/24 06:09:38;;;;;;;54.70;37.90;;;5.20;99.90;;;;;;5025242;28;20583;-75
2022/03/24 06:12:08;;;;;;;58.33;40.73;;;5.20;99.90;;;;;;5024132;28;20214;-76
2022/03/24 06:14:35;;;;;;;63.17;41.20;;;5.20;99.90;;;;;;5024760;28;20595;-75
2022/03/24 06:17:03;;;;;;;53.70;37.00;;;5.30;99.90;;;;;;5025087;28;20202;-75
2022/03/24 06:19:35;;;;;;;57.73;39.03;;;5.30;99.90;;;;;;5023586;28;20688;-74
2022/03/24 06:22:02;;;;;;;55.80;38.67;;;5.30;99.90;;;;;;5025388;28;20210;-74
2022/03/24 06:24:30;;;;;;;54.43;37.40;;;5.30;99.90;;;;;;5024887;28;20234;-74
2022/03/24 06:26:57;;;;;;;57.00;37.23;;;5.40;99.90;;;;;;5024965;28;20292;-74
2022/03/24 06:29:24;;;;;;;59.97;38.50;;;5.40;99.90;;;;;;5023402;28;20293;-75
2022/03/24 06:31:51;;;;;;;60.63;40.87;;;5.50;99.90;;;;;;5024797;28;20334;-74
2022/03/24 06:34:18;;;;;;;58.10;39.33;;;5.50;99.90;;;;;;5024262;28;20618;-74
2022/03/24 06:36:45;;;;;;;66.83;45.13;;;5.50;99.90;;;;;;5024990;28;20205;-74
2022/03/24 06:39:11;;;;;;;71.50;46.33;;;5.60;99.90;;;;;;5023233;28;20221;-74
2022/03/24 06:41:39;;;;;;;68.13;45.97;;;5.60;99.90;;;;;;5024944;28;20218;-75
2022/03/24 06:44:07;;;;;;;63.90;43.27;;;5.70;99.90;;;;;;5024562;28;20214;-75
2022/03/24 06:46:35;;;;;;;62.33;43.47;;;5.70;99.90;;;;;;5023890;28;20194;-75
2022/03/24 06:49:03;;;;;;;65.13;44.40;;;5.80;99.90;;;;;;5023446;28;20210;-74
2022/03/24 06:51:30;;;;;;;71.53;45.97;;;5.90;99.90;;;;;;5023897;28;20202;-75
2022/03/24 06:53:56;;;;;;;71.47;48.83;;;5.90;99.90;;;;;;5023323;28;20215;-75
2022/03/24 06:56:23;;;;;;;77.97;49.13;;;6.00;99.90;;;;;;5023021;28;20612;-75
2022/03/24 06:58:52;;;;;;;67.67;45.97;;;6.10;99.90;;;;;;5023307;28;20213;-74
2022/03/24 07:01:20;;;;;;;72.30;46.73;;;6.10;99.90;;;;;;5023514;28;20508;-74
2022/03/24 07:03:47;;;;;;;73.07;47.27;;;6.20;99.90;;;;;;5023655;28;20212;-74
2022/03/24 07:06:14;;;;;;;72.23;48.97;;;6.30;99.90;;;;;;5023992;28;20213;-75
2022/03/24 07:08:40;;;;;;;76.00;50.30;;;6.40;99.90;;;;;;5023607;28;20210;-74
2022/03/24 07:11:08;;;;;;;75.27;50.20;;;6.50;99.90;;;;;;5022923;28;20206;-76
2022/03/24 07:13:35;;;;;;;74.70;49.70;;;6.60;99.90;;;;;;5024252;28;20213;-76
2022/03/24 07:16:03;;;;;;;70.27;47.37;;;6.70;99.90;;;;;;5022077;28;20653;-76
2022/03/24 07:18:30;;;;;;;73.73;49.83;;;6.80;99.90;;;;;;5022538;28;20209;-77
2022/03/24 07:20:57;;;;;;;75.00;49.83;;;6.90;99.90;;;;;;5015272;28;20665;-75
2022/03/24 07:23:24;;;;;;;81.87;54.17;;;7.00;99.90;;;;;;5016412;28;20933;-77
2022/03/24 07:25:51;;;;;;;78.67;53.60;;;7.10;99.90;;;;;;5015021;28;20607;-75
2022/03/24 07:28:18;;;;;;;79.13;52.77;;;7.20;99.90;;;;;;5023656;28;20198;-77
2022/03/24 07:30:50;;;;;;;89.93;56.17;;;7.30;99.90;;;;;;5022288;28;20214;-77
2022/03/24 07:33:19;;;;;;;81.97;55.80;;;7.40;99.90;;;;;;5022928;28;20210;-76
2022/03/24 07:35:47;;;;;;;87.67;57.17;;;7.50;99.90;;;;;;5023562;28;20257;-77
2022/03/24 07:38:15;;;;;;;92.53;56.70;;;7.60;99.90;;;;;;5023380;28;20206;-74
2022/03/24 07:40:42;;;;;;;91.50;57.50;;;7.70;99.90;;;;;;5022669;28;20254;-75
2022/03/24 07:43:09;;;;;;;81.43;55.93;;;7.80;99.90;;;;;;5022798;28;20673;-74
2022/03/24 07:45:38;;;;;;;77.83;53.70;;;7.90;99.90;;;;;;5023277;28;20614;-75
2022/03/24 07:48:13;;;;;;;78.93;54.37;;;8.00;99.90;;;;;;5010889;28;20752;-75
2022/03/24 07:50:43;;;;;;;77.43;54.93;;;8.20;99.90;;;;;;5003158;28;20579;-75
2022/03/24 07:53:35;;;;;;;75.00;53.43;;;8.30;99.90;;;;;;5003783;28;20204;-76
2022/03/24 07:56:03;;;;;;;74.13;50.97;;;8.40;99.90;;;;;;4979233;28;20722;-75
2022/03/24 07:58:31;;;;;;;68.83;49.63;;;8.70;99.90;;;;;;4985733;28;20469;-75
2022/03/24 08:00:59;;;;;;;72.03;51.30;;;8.80;99.90;;;;;;5023117;28;20237;-75
2022/03/24 08:03:26;;;;;;;72.37;50.47;;;8.90;99.90;;;;;;5022546;28;20240;-76
2022/03/24 08:05:55;;;;;;;65.73;46.63;;;9.10;99.90;;;;;;5021885;28;20619;-75
2022/03/24 08:08:22;;;;;;;68.97;46.17;;;9.20;99.90;;;;;;5023166;28;20249;-74
2022/03/24 08:10:50;;;;;;;65.00;45.13;;;9.40;99.90;;;;;;5022619;28;20198;-75
2022/03/24 08:13:19;;;;;;;66.60;47.90;;;9.50;99.90;;;;;;5022749;28;20238;-75
2022/03/24 08:15:47;;;;;;;62.37;45.13;;;9.70;99.90;;;;;;5020264;28;20349;-76
2022/03/24 08:18:15;;;;;;;58.23;43.10;;;9.90;99.90;;;;;;5021536;28;20201;-77
2022/03/24 08:20:43;;;;;;;58.37;41.87;;;10.00;99.90;;;;;;5023914;28;20261;-78
2022/03/24 08:23:13;;;;;;;55.90;38.97;;;10.20;99.90;;;;;;5019582;28;20218;-76
2022/03/24 08:25:42;;;;;;;55.83;38.73;;;10.40;99.90;;;;;;5022128;28;20217;-78
2022/03/24 08:28:10;;;;;;;56.80;39.70;;;10.50;99.90;;;;;;5021577;28;20216;-79
2022/03/24 08:30:37;;;;;;;54.93;39.57;;;10.70;99.90;;;;;;5022026;28;20674;-74
2022/03/24 08:33:05;;;;;;;51.10;37.87;;;10.80;99.90;;;;;;5022291;28;20210;-75
2022/03/24 08:35:32;;;;;;;52.03;38.27;;;10.90;99.90;;;;;;5021006;28;20294;-76
2022/03/24 08:37:59;;;;;;;53.57;39.37;;;11.00;99.90;;;;;;5022248;28;20619;-76
2022/03/24 08:40:27;;;;;;;55.87;39.60;;;11.10;99.90;;;;;;5021296;28;20222;-74
2022/03/24 08:42:54;;;;;;;49.57;36.90;;;11.30;99.90;;;;;;5021779;28;20211;-76
2022/03/24 08:45:21;;;;;;;51.47;37.80;;;11.50;99.90;;;;;;5021943;28;20210;-78
2022/03/24 08:47:48;;;;;;;48.17;35.93;;;11.70;99.90;;;;;;5022270;28;20242;-75
2022/03/24 08:50:15;;;;;;;49.80;36.63;;;11.90;99.90;;;;;;5022963;28;20206;-78
2022/03/24 08:52:43;;;;;;;44.17;34.57;;;12.00;99.90;;;;;;5021247;28;20936;-77
2022/03/24 08:55:13;;;;;;;50.97;34.83;;;12.20;99.90;;;;;;5021355;28;20214;-78
2022/03/24 08:57:42;;;;;;;45.17;34.47;;;12.40;99.90;;;;;;5022463;28;20211;-76
2022/03/24 09:00:13;;;;;;;44.60;33.77;;;12.60;99.90;;;;;;5020502;28;20230;-77
2022/03/24 09:02:40;;;;;;;41.47;31.27;;;12.70;99.90;;;;;;5021974;28;20622;-76
2022/03/24 09:05:08;;;;;;;45.03;33.13;;;12.90;99.90;;;;;;5022361;28;20321;-79
2022/03/24 09:07:35;;;;;;;37.87;30.43;;;13.10;99.90;;;;;;5020510;28;20237;-76
2022/03/24 09:10:02;;;;;;;39.93;31.97;;;13.20;99.90;;;;;;5022301;28;20206;-76
2022/03/24 09:12:30;;;;;;;38.47;30.43;;;13.40;99.90;;;;;;5020953;28;20213;-75
2022/03/24 09:14:58;;;;;;;40.33;30.67;;;13.60;99.90;;;;;;5021113;28;20238;-75
2022/03/24 09:17:25;;;;;;;34.63;27.67;;;13.70;99.90;;;;;;5022108;28;20222;-74
2022/03/24 09:19:52;;;;;;;35.83;28.87;;;13.90;99.90;;;;;;5020898;28;20887;-75
2022/03/24 09:22:19;;;;;;;39.40;28.87;;;14.00;99.90;;;;;;5022117;28;20227;-75
2022/03/24 09:24:46;;;;;;;35.43;28.47;;;14.10;99.90;;;;;;5025815;28;20213;-75
2022/03/24 09:27:12;;;;;;;37.27;28.60;;;14.20;99.90;;;;;;5024587;28;20248;-74
2022/03/24 09:29:39;;;;;;;38.33;28.63;;;14.40;99.90;;;;;;5024419;28;20623;-74
2022/03/24 09:32:12;;;;;;;36.37;28.63;;;14.50;99.90;;;;;;5024321;28;20217;-75
2022/03/24 09:34:40;;;;;;;31.47;25.17;;;14.70;99.90;;;;;;5025208;28;20206;-76
2022/03/24 09:37:07;;;;;;;34.07;25.80;;;14.80;99.90;;;;;;5025079;28;20230;-78
2022/03/24 09:39:34;;;;;;;39.70;27.17;;;15.00;99.90;;;;;;5025155;28;20587;-76
2022/03/24 09:42:00;;;;;;;33.83;25.20;;;15.20;99.90;;;;;;5024732;28;20229;-76
2022/03/24 09:44:28;;;;;;;32.63;24.20;;;15.40;99.90;;;;;;5025254;28;20207;-75
2022/03/24 09:46:55;;;;;;;27.77;21.30;;;15.60;99.90;;;;;;5022926;28;20318;-76
2022/03/24 09:49:24;;;;;;;28.50;21.88;;;15.80;99.90;;;;;;5023230;28;20292;-77
2022/03/24 09:51:51;;;;;;;28.77;21.20;;;16.00;99.90;;;;;;5043438;28;20210;-77
2022/03/24 09:54:18;;;;;;;28.33;20.48;;;16.20;99.90;;;;;;5023452;28;20219;-78
2022/03/24 09:56:45;;;;;;;26.55;20.48;;;16.30;99.90;;;;;;5024411;28;20211;-78
2022/03/24 09:59:12;;;;;;;36.83;21.50;;;16.50;99.90;;;;;;5023294;28;20630;-78
2022/03/24 10:01:40;;;;;;;29.13;21.30;;;16.60;99.90;;;;;;5025166;28;20234;-77
2022/03/24 10:04:10;;;;;;;28.67;19.65;;;16.70;99.90;;;;;;5023862;28;20901;-75
2022/03/24 10:06:40;;;;;;;29.60;19.52;;;16.90;99.90;;;;;;5023950;28;20894;-74
2022/03/24 10:09:08;;;;;;;33.63;21.10;;;17.00;99.90;;;;;;5024994;28;20215;-75
2022/03/24 10:11:36;;;;;;;33.05;20.65;;;17.10;99.90;;;;;;5024143;28;20232;-76
2022/03/24 10:14:04;;;;;;;28.30;20.27;;;17.30;99.90;;;;;;5023671;28;20957;-76
2022/03/24 10:16:44;;;;;;;31.90;21.77;;;17.40;99.90;;;;;;5024291;28;20246;-78
2022/03/24 10:19:12;;;;;;;29.10;21.58;;;17.50;99.90;;;;;;5023192;28;20202;-77
2022/03/24 10:21:43;;;;;;;31.35;21.40;;;17.60;99.90;;;;;;5025222;28;20226;-79
2022/03/24 10:24:12;;;;;;;29.92;20.15;;;17.60;99.90;;;;;;5025083;28;20206;-78
2022/03/24 10:26:47;;;;;;;30.95;20.73;;;17.80;99.90;;;;;;5024133;28;20610;-78
2022/03/24 10:29:17;;;;;;;26.83;20.30;;;17.80;99.90;;;;;;5024272;28;20680;-78
2022/03/24 10:31:45;;;;;;;33.30;21.42;;;18.00;99.90;;;;;;5023330;28;20198;-78
2022/03/24 10:34:12;;;;;;;25.38;20.20;;;18.00;99.90;;;;;;5024018;28;20213;-78
2022/03/24 10:36:42;;;;;;;27.52;18.95;;;18.20;99.90;;;;;;5005184;28;20207;-79
2022/03/24 10:39:09;;;;;;;30.67;20.13;;;18.40;99.90;;;;;;5004520;28;20753;-81
2022/03/24 10:41:38;;;;;;;42.65;21.80;;;18.60;99.90;;;;;;5005002;28;20231;-77
2022/03/24 10:44:09;;;;;;;26.27;18.63;;;18.70;99.90;;;;;;5027291;28;20214;-79
2022/03/24 10:46:39;;;;;;;23.63;18.60;;;18.70;99.90;;;;;;5034437;28;20206;-78
2022/03/24 10:49:17;;;;;;;29.98;18.73;;;18.80;99.90;;;;;;5030748;28;20206;-78
2022/03/24 10:51:46;;;;;;;24.60;19.27;;;18.90;99.90;;;;;;5030898;28;21018;-77
2022/03/24 10:54:28;;;;;;;27.08;20.30;;;19.00;99.90;;;;;;5029221;28;20210;-79
2022/03/24 10:57:01;;;;;;;25.23;20.02;;;19.00;99.90;;;;;;5026362;28;20225;-78
2022/03/24 10:59:31;;;;;;;26.38;19.92;;;19.00;99.90;;;;;;5024187;28;20209;-77
2022/03/24 11:02:01;;;;;;;27.33;19.05;;;19.10;99.90;;;;;;5024390;28;20230;-77
2022/03/24 11:04:28;;;;;;;22.27;17.67;;;19.20;99.90;;;;;;5023483;28;20684;-78
2022/03/24 11:06:56;;;;;;;33.60;23.05;;;19.40;99.90;;;;;;5016159;28;20225;-79
2022/03/24 11:09:24;;;;;;;31.40;21.38;;;19.50;99.90;;;;;;5024054;28;20202;-79
2022/03/24 11:12:25;;;;;;;28.63;19.92;;;19.60;99.90;;;;;;5023302;28;20209;-79
2022/03/24 11:14:54;;;;;;;32.10;21.73;;;19.70;99.90;;;;;;5022660;28;20241;-79
2022/03/24 11:17:23;;;;;;;32.30;21.92;;;19.70;99.90;;;;;;5023574;28;20230;-80
2022/03/24 11:19:55;;;;;;;30.52;21.52;;;19.80;99.90;;;;;;5023704;28;20234;-79
2022/03/24 11:22:37;;;;;;;25.55;19.70;;;19.80;99.90;;;;;;5022802;28;20231;-80
2022/03/24 11:25:04;;;;;;;33.42;25.50;;;19.90;99.90;;;;;;5022540;28;20264;-79
2022/03/24 11:27:31;;;;;;;31.35;22.98;;;20.10;99.90;;;;;;5022796;28;20599;-78
2022/03/24 11:29:58;;;;;;;32.67;24.13;;;20.20;99.90;;;;;;5022031;28;20214;-80
2022/03/24 11:32:26;;;;;;;35.08;24.88;;;20.30;99.90;;;;;;5022370;28;20206;-77
2022/03/24 11:34:54;;;;;;;34.78;26.70;;;20.20;99.90;;;;;;5021720;28;20971;-77
2022/03/24 11:37:21;;;;;;;33.67;27.10;;;20.30;99.90;;;;;;5023393;28;20261;-78
2022/03/24 11:40:07;;;;;;;38.40;29.10;;;20.40;99.90;;;;;;5021856;28;20235;-77
2022/03/24 11:42:37;;;;;;;37.42;28.80;;;20.50;99.90;;;;;;5022296;28;20218;-78
2022/03/24 11:45:09;;;;;;;37.92;28.75;;;20.50;99.90;;;;;;5022521;28;20214;-78
2022/03/24 11:47:52;;;;;;;36.95;28.25;;;20.50;99.90;;;;;;5021553;28;20219;-78
2022/03/24 11:50:34;;;;;;;39.03;27.75;;;20.40;99.90;;;;;;5020623;28;20479;-78
2022/03/24 11:53:14;;;;;;;38.50;28.30;;;20.40;99.90;;;;;;5023086;28;20602;-77
2022/03/24 11:55:45;;;;;;;38.75;29.33;;;20.50;99.90;;;;;;5022315;28;20210;-78
2022/03/24 11:58:12;;;;;;;37.47;28.77;;;20.40;99.90;;;;;;5022299;28;20514;-80
2022/03/24 12:00:43;;;;;;;44.30;26.83;;;20.40;99.90;;;;;;5022417;28;20195;-78
2022/03/24 12:03:44;;;;;;;39.38;27.55;;;20.50;99.90;;;;;;5022363;28;20237;-78
2022/03/24 12:06:14;;;;;;;34.75;26.77;;;20.50;99.90;;;;;;5023054;28;20209;-78
2022/03/24 12:08:49;;;;;;;34.80;25.80;;;20.30;99.90;;;;;;5022506;28;20308;-77
2022/03/24 12:11:53;;;;;;;38.88;25.60;;;20.40;99.90;;;;;;5021926;28;20201;-77
2022/03/24 12:14:36;;;;;;;31.65;23.10;;;20.20;99.90;;;;;;5002649;28;20202;-75
2022/03/24 12:17:07;;;;;;;38.58;26.05;;;20.30;99.90;;;;;;5002584;28;20241;-76
2022/03/24 12:19:47;;;;;;;30.08;22.65;;;20.40;99.90;;;;;;5003146;28;20199;-77
2022/03/24 12:22:47;;;;;;;31.58;24.20;;;20.40;99.90;;;;;;5003193;28;20660;-75
2022/03/24 12:25:26;;;;;;;26.98;22.15;;;20.40;99.90;;;;;;5002694;28;20890;-74
2022/03/24 12:28:13;;;;;;;33.45;24.67;;;20.40;99.90;;;;;;5003325;28;20276;-76
2022/03/24 12:30:53;;;;;;;30.45;23.23;;;20.40;99.90;;;;;;5002997;28;20523;-76
2022/03/24 12:33:39;;;;;;;33.40;25.05;;;20.50;99.90;;;;;;5003709;28;20194;-76
2022/03/24 12:36:06;;;;;;;33.97;24.25;;;20.40;99.90;;;;;;5009494;28;20325;-79
2022/03/24 12:38:55;;;;;;;35.28;25.83;;;20.30;99.90;;;;;;5022322;28;20349;-78
2022/03/24 12:41:26;;;;;;;32.70;25.23;;;20.30;99.90;;;;;;5021771;28;20226;-78